createdAt,value
2017-02-26T00:00:19.119Z,28.9
2017-02-26T00:01:19.376Z,28.9
2017-02-26T00:02:19.300Z,28.9
2017-02-26T00:03:19.260Z,28.9
2017-02-26T00:04:20.503Z,28.9
2017-02-26T00:05:19.387Z,28.9
2017-02-26T00:06:19.485Z,28.9
2017-02-26T00:07:19.789Z,28.9
2017-02-26T00:08:19.685Z,28.9
2017-02-26T00:09:20.783Z,28.8
2017-02-26T00:10:20.890Z,28.9
2017-02-26T00:11:20.972Z,28.8
2017-02-26T00:12:19.851Z,28.9
2017-02-26T00:13:20.232Z,28.8
2017-02-26T00:14:19.978Z,28.8
2017-02-26T00:15:21.139Z,28.8
2017-02-26T00:16:21.314Z,28.8
2017-02-26T00:17:20.156Z,28.8
2017-02-26T00:18:21.410Z,28.8
2017-02-26T00:19:20.566Z,28.8
2017-02-26T00:20:20.427Z,28.8
2017-02-26T00:21:20.374Z,28.8
2017-02-26T00:22:20.543Z,28.8
2017-02-26T00:23:21.637Z,28.8
2017-02-26T00:24:20.687Z,28.8
2017-02-26T00:25:20.918Z,28.8
2017-02-26T00:26:20.736Z,28.8
2017-02-26T00:27:20.788Z,28.8
2017-02-26T00:28:20.764Z,28.8
2017-02-26T00:29:21.915Z,28.8
2017-02-26T00:30:20.968Z,28.8
2017-02-26T00:31:21.225Z,28.8
2017-02-26T00:32:21.130Z,28.8
2017-02-26T00:33:21.195Z,28.8
2017-02-26T00:34:22.245Z,28.8
2017-02-26T00:35:21.341Z,28.8
2017-02-26T00:36:22.481Z,28.8
2017-02-26T00:37:22.730Z,28.8
2017-02-26T00:38:21.340Z,28.8
2017-02-26T00:39:21.478Z,28.8
2017-02-26T00:40:21.542Z,28.8
2017-02-26T00:41:21.595Z,28.8
2017-02-26T00:42:22.660Z,28.8
2017-02-26T00:43:21.762Z,28.8
2017-02-26T00:44:21.664Z,28.8
2017-02-26T00:45:22.793Z,28.8
2017-02-26T00:46:22.817Z,28.8
2017-02-26T00:47:21.777Z,28.8
2017-02-26T00:48:21.771Z,28.8
2017-02-26T00:49:23.141Z,28.8
2017-02-26T00:50:21.900Z,28.8
2017-02-26T00:51:23.054Z,28.8
2017-02-26T00:52:23.027Z,28.8
2017-02-26T00:53:23.147Z,28.8
2017-02-26T00:54:22.237Z,28.8
2017-02-26T00:55:23.485Z,28.8
2017-02-26T00:56:23.339Z,28.8
2017-02-26T00:57:23.474Z,28.8
2017-02-26T00:58:22.326Z,28.8
2017-02-26T00:59:22.319Z,28.8
2017-02-26T01:00:23.614Z,28.8
2017-02-26T01:01:22.736Z,28.8
2017-02-26T01:02:23.695Z,28.8
2017-02-26T01:03:23.782Z,28.8
2017-02-26T01:04:22.664Z,28.8
2017-02-26T01:05:22.721Z,28.8
2017-02-26T01:06:22.880Z,28.8
2017-02-26T01:07:23.055Z,28.8
2017-02-26T01:08:22.923Z,28.8
2017-02-26T01:09:24.066Z,28.8
2017-02-26T01:10:24.096Z,28.8
2017-02-26T01:11:23.099Z,28.8
2017-02-26T01:12:23.043Z,28.8
2017-02-26T01:13:24.395Z,28.8
2017-02-26T01:14:24.199Z,28.8
2017-02-26T01:15:24.302Z,28.8
2017-02-26T01:16:23.145Z,28.8
2017-02-26T01:17:24.317Z,28.8
2017-02-26T01:18:23.333Z,28.8
2017-02-26T01:19:23.501Z,28.8
2017-02-26T01:20:23.519Z,28.8
2017-02-26T01:21:23.579Z,28.8
2017-02-26T01:22:23.520Z,28.8
2017-02-26T01:23:23.651Z,28.8
2017-02-26T01:24:24.689Z,28.8
2017-02-26T01:25:24.973Z,28.8
2017-02-26T01:26:24.793Z,28.8
2017-02-26T01:27:23.770Z,28.8
2017-02-26T01:28:23.757Z,28.8
2017-02-26T01:29:25.007Z,28.8
2017-02-26T01:30:24.934Z,28.8
2017-02-26T01:31:25.133Z,28.8
2017-02-26T01:32:23.860Z,28.8
2017-02-26T01:33:25.032Z,28.8
2017-02-26T01:34:24.072Z,28.8
2017-02-26T01:35:24.147Z,28.8
2017-02-26T01:36:24.096Z,28.8
2017-02-26T01:37:25.451Z,28.8
2017-02-26T01:38:25.237Z,28.8
2017-02-26T01:39:24.358Z,28.8
2017-02-26T01:40:25.356Z,28.7
2017-02-26T01:41:24.433Z,28.8
2017-02-26T01:42:24.493Z,28.8
2017-02-26T01:43:25.853Z,28.8
2017-02-26T01:44:25.586Z,28.8
2017-02-26T01:45:24.563Z,28.8
2017-02-26T01:46:24.507Z,28.8
2017-02-26T01:47:25.738Z,28.8
2017-02-26T01:48:24.650Z,28.8
2017-02-26T01:49:26.035Z,28.8
2017-02-26T01:50:24.743Z,28.8
2017-02-26T01:51:25.908Z,28.8
2017-02-26T01:52:24.850Z,28.8
2017-02-26T01:53:24.932Z,28.7
2017-02-26T01:54:24.941Z,28.7
2017-02-26T01:55:25.257Z,28.8
2017-02-26T01:56:26.078Z,28.7
2017-02-26T01:57:25.137Z,28.7
2017-02-26T01:58:25.074Z,28.7
2017-02-26T01:59:25.167Z,28.7
2017-02-26T02:00:25.295Z,28.7
2017-02-26T02:01:26.503Z,28.7
2017-02-26T02:02:25.287Z,28.7
2017-02-26T02:03:26.500Z,28.7
2017-02-26T02:04:25.420Z,28.7
2017-02-26T02:05:26.425Z,28.7
2017-02-26T02:06:26.618Z,28.7
2017-02-26T02:07:25.791Z,28.7
2017-02-26T02:08:25.568Z,28.7
2017-02-26T02:09:25.700Z,28.7
2017-02-26T02:10:26.783Z,28.7
2017-02-26T02:11:26.827Z,28.7
2017-02-26T02:12:25.872Z,28.7
2017-02-26T02:13:25.999Z,28.7
2017-02-26T02:14:26.981Z,28.7
2017-02-26T02:15:26.034Z,28.7
2017-02-26T02:16:26.002Z,28.7
2017-02-26T02:17:25.997Z,28.7
2017-02-26T02:18:26.101Z,28.7
2017-02-26T02:19:26.309Z,28.7
2017-02-26T02:20:27.220Z,28.7
2017-02-26T02:21:27.266Z,28.7
2017-02-26T02:22:27.368Z,28.7
2017-02-26T02:23:26.358Z,28.7
2017-02-26T02:24:26.362Z,28.7
2017-02-26T02:25:26.572Z,28.7
2017-02-26T02:26:26.433Z,28.7
2017-02-26T02:27:27.483Z,28.7
2017-02-26T02:28:26.432Z,28.7
2017-02-26T02:29:26.583Z,28.7
2017-02-26T02:30:26.606Z,28.7
2017-02-26T02:31:27.806Z,28.7
2017-02-26T02:32:28.192Z,28.7
2017-02-26T02:33:26.748Z,28.7
2017-02-26T02:34:26.785Z,28.7
2017-02-26T02:35:27.899Z,28.7
2017-02-26T02:36:26.845Z,28.7
2017-02-26T02:37:27.054Z,28.7
2017-02-26T02:38:27.962Z,28.7
2017-02-26T02:39:28.170Z,28.7
2017-02-26T02:40:28.203Z,28.7
2017-02-26T02:41:28.203Z,28.7
2017-02-26T02:42:28.329Z,28.7
2017-02-26T02:43:27.426Z,28.7
2017-02-26T02:44:27.349Z,28.7
2017-02-26T02:45:27.362Z,28.7
2017-02-26T02:46:27.371Z,28.7
2017-02-26T02:47:28.601Z,28.7
2017-02-26T02:48:29.185Z,28.7
2017-02-26T02:49:28.886Z,28.7
2017-02-26T02:50:28.788Z,28.7
2017-02-26T02:51:28.837Z,28.7
2017-02-26T02:52:28.844Z,28.7
2017-02-26T02:53:28.821Z,28.7
2017-02-26T02:54:27.842Z,28.7
2017-02-26T02:55:28.967Z,28.7
2017-02-26T02:56:27.978Z,28.7
2017-02-26T02:57:28.910Z,28.7
2017-02-26T02:58:27.989Z,28.7
2017-02-26T02:59:28.051Z,28.7
2017-02-26T03:00:29.302Z,28.7
2017-02-26T03:01:29.322Z,28.7
2017-02-26T03:02:29.256Z,28.7
2017-02-26T03:03:28.136Z,28.7
2017-02-26T03:04:29.339Z,28.7
2017-02-26T03:05:28.405Z,28.7
2017-02-26T03:06:29.507Z,28.7
2017-02-26T03:07:29.340Z,28.7
2017-02-26T03:08:28.621Z,28.7
2017-02-26T03:09:29.807Z,28.7
2017-02-26T03:10:29.808Z,28.7
2017-02-26T03:11:28.659Z,28.7
2017-02-26T03:12:29.933Z,28.7
2017-02-26T03:13:29.384Z,28.7
2017-02-26T03:14:28.792Z,28.7
2017-02-26T03:15:30.097Z,28.7
2017-02-26T03:16:28.978Z,28.7
2017-02-26T03:17:30.183Z,28.7
2017-02-26T03:18:29.121Z,28.7
2017-02-26T03:19:30.340Z,28.7
2017-02-26T03:20:30.418Z,28.7
2017-02-26T03:21:29.316Z,28.7
2017-02-26T03:22:29.302Z,28.7
2017-02-26T03:23:29.318Z,28.7
2017-02-26T03:24:30.483Z,28.7
2017-02-26T03:25:29.520Z,28.7
2017-02-26T03:26:29.478Z,28.7
2017-02-26T03:27:30.644Z,28.7
2017-02-26T03:28:29.695Z,28.7
2017-02-26T03:29:30.675Z,28.7
2017-02-26T03:30:30.751Z,28.7
2017-02-26T03:31:29.622Z,28.7
2017-02-26T03:32:29.783Z,28.7
2017-02-26T03:33:30.860Z,28.7
2017-02-26T03:34:30.875Z,28.7
2017-02-26T03:35:30.861Z,28.7
2017-02-26T03:36:30.941Z,28.7
2017-02-26T03:37:31.073Z,28.7
2017-02-26T03:38:30.046Z,28.7
2017-02-26T03:39:31.128Z,28.7
2017-02-26T03:40:31.119Z,28.7
2017-02-26T03:41:31.226Z,28.7
2017-02-26T03:42:30.193Z,28.7
2017-02-26T03:43:30.215Z,28.7
2017-02-26T03:44:31.337Z,28.7
2017-02-26T03:45:31.545Z,28.7
2017-02-26T03:46:31.567Z,28.7
2017-02-26T03:47:31.591Z,28.7
2017-02-26T03:48:30.645Z,28.7
2017-02-26T03:49:30.605Z,28.7
2017-02-26T03:50:30.794Z,28.7
2017-02-26T03:51:31.955Z,28.7
2017-02-26T03:52:31.941Z,28.7
2017-02-26T03:53:30.982Z,28.7
2017-02-26T03:54:31.976Z,28.7
2017-02-26T03:55:32.071Z,28.7
2017-02-26T03:56:30.961Z,28.6
2017-02-26T03:57:32.130Z,28.7
2017-02-26T03:58:31.181Z,28.7
2017-02-26T03:59:32.210Z,28.7
2017-02-26T04:00:32.238Z,28.6
2017-02-26T04:01:31.174Z,28.7
2017-02-26T04:02:31.290Z,28.7
2017-02-26T04:03:32.335Z,28.7
2017-02-26T04:04:31.386Z,28.6
2017-02-26T04:05:32.488Z,28.7
2017-02-26T04:06:32.436Z,28.7
2017-02-26T04:07:31.386Z,28.6
2017-02-26T04:08:32.594Z,28.7
2017-02-26T04:09:32.592Z,28.7
2017-02-26T04:10:32.632Z,28.7
2017-02-26T04:11:32.689Z,28.7
2017-02-26T04:12:31.915Z,28.7
2017-02-26T04:13:32.862Z,28.7
2017-02-26T04:14:32.936Z,28.6
2017-02-26T04:15:31.860Z,28.6
2017-02-26T04:16:31.824Z,28.6
2017-02-26T04:17:31.892Z,28.6
2017-02-26T04:18:33.275Z,28.6
2017-02-26T04:19:31.896Z,28.6
2017-02-26T04:20:33.086Z,28.6
2017-02-26T04:21:32.087Z,28.6
2017-02-26T04:22:33.202Z,28.6
2017-02-26T04:23:32.217Z,28.6
2017-02-26T04:24:32.336Z,28.6
2017-02-26T04:25:33.303Z,28.6
2017-02-26T04:26:32.256Z,28.6
2017-02-26T04:27:33.423Z,28.6
2017-02-26T04:28:32.451Z,28.6
2017-02-26T04:29:33.489Z,28.6
2017-02-26T04:30:33.798Z,28.6
2017-02-26T04:31:33.563Z,28.6
2017-02-26T04:32:32.575Z,28.6
2017-02-26T04:33:33.796Z,28.6
2017-02-26T04:34:33.872Z,28.6
2017-02-26T04:35:32.877Z,28.6
2017-02-26T04:36:34.260Z,28.6
2017-02-26T04:37:32.874Z,28.6
2017-02-26T04:38:32.945Z,28.6
2017-02-26T04:39:33.117Z,28.6
2017-02-26T04:40:33.071Z,28.6
2017-02-26T04:41:34.342Z,28.6
2017-02-26T04:42:34.573Z,28.6
2017-02-26T04:43:34.479Z,28.6
2017-02-26T04:44:34.446Z,28.6
2017-02-26T04:45:33.431Z,28.6
2017-02-26T04:46:34.496Z,28.6
2017-02-26T04:47:34.591Z,28.6
2017-02-26T04:48:34.779Z,28.6
2017-02-26T04:49:33.519Z,28.6
2017-02-26T04:50:33.673Z,28.6
2017-02-26T04:51:33.697Z,28.6
2017-02-26T04:52:34.841Z,28.6
2017-02-26T04:53:33.966Z,28.6
2017-02-26T04:54:33.785Z,28.6
2017-02-26T04:55:33.855Z,28.6
2017-02-26T04:56:34.928Z,28.6
2017-02-26T04:57:34.966Z,28.6
2017-02-26T04:58:33.915Z,28.6
2017-02-26T04:59:34.224Z,28.6
2017-02-26T05:00:35.150Z,28.6
2017-02-26T05:01:34.157Z,28.6
2017-02-26T05:02:34.135Z,28.6
2017-02-26T05:03:35.381Z,28.6
2017-02-26T05:04:34.318Z,28.6
2017-02-26T05:05:35.614Z,28.6
2017-02-26T05:06:35.498Z,28.6
2017-02-26T05:07:35.535Z,28.6
2017-02-26T05:08:34.449Z,28.6
2017-02-26T05:09:35.704Z,28.6
2017-02-26T05:10:34.595Z,28.6
2017-02-26T05:11:34.835Z,28.6
2017-02-26T05:12:35.732Z,28.6
2017-02-26T05:13:35.758Z,28.6
2017-02-26T05:14:35.853Z,28.6
2017-02-26T05:15:34.761Z,28.6
2017-02-26T05:16:34.953Z,28.6
2017-02-26T05:17:36.302Z,28.6
2017-02-26T05:18:36.236Z,28.6
2017-02-26T05:19:36.285Z,28.6
2017-02-26T05:20:35.195Z,28.6
2017-02-26T05:21:36.354Z,28.6
2017-02-26T05:22:35.281Z,28.6
2017-02-26T05:23:35.366Z,28.6
2017-02-26T05:24:35.284Z,28.6
2017-02-26T05:25:36.520Z,28.6
2017-02-26T05:26:35.325Z,28.6
2017-02-26T05:27:35.496Z,28.6
2017-02-26T05:28:35.486Z,28.6
2017-02-26T05:29:36.890Z,28.6
2017-02-26T05:30:35.739Z,28.6
2017-02-26T05:31:36.820Z,28.6
2017-02-26T05:32:35.770Z,28.6
2017-02-26T05:33:35.854Z,28.6
2017-02-26T05:34:35.949Z,28.6
2017-02-26T05:35:37.321Z,28.6
2017-02-26T05:36:37.077Z,28.6
2017-02-26T05:37:37.034Z,28.6
2017-02-26T05:38:37.152Z,28.6
2017-02-26T05:39:36.122Z,28.6
2017-02-26T05:40:37.264Z,28.6
2017-02-26T05:41:37.572Z,28.6
2017-02-26T05:42:36.299Z,28.6
2017-02-26T05:43:37.394Z,28.6
2017-02-26T05:44:36.324Z,28.6
2017-02-26T05:45:36.284Z,28.6
2017-02-26T05:46:36.489Z,28.6
2017-02-26T05:47:37.850Z,28.6
2017-02-26T05:48:36.540Z,28.6
2017-02-26T05:49:37.624Z,28.6
2017-02-26T05:50:36.679Z,28.6
2017-02-26T05:51:36.698Z,28.6
2017-02-26T05:52:36.828Z,28.6
2017-02-26T05:53:38.075Z,28.6
2017-02-26T05:54:36.860Z,28.6
2017-02-26T05:55:38.096Z,28.6
2017-02-26T05:56:36.996Z,28.6
2017-02-26T05:57:37.075Z,28.6
2017-02-26T05:58:38.239Z,28.6
2017-02-26T05:59:38.529Z,28.6
2017-02-26T06:00:37.240Z,28.5
2017-02-26T06:01:38.361Z,28.5
2017-02-26T06:02:37.294Z,28.6
2017-02-26T06:03:38.537Z,28.6
2017-02-26T06:04:38.540Z,28.6
2017-02-26T06:05:38.842Z,28.6
2017-02-26T06:06:38.642Z,28.6
2017-02-26T06:07:37.571Z,28.6
2017-02-26T06:08:37.647Z,28.6
2017-02-26T06:09:37.727Z,28.6
2017-02-26T06:10:37.950Z,28.6
2017-02-26T06:11:38.196Z,28.6
2017-02-26T06:12:39.094Z,28.6
2017-02-26T06:13:39.077Z,28.6
2017-02-26T06:14:39.259Z,28.6
2017-02-26T06:15:38.292Z,28.5
2017-02-26T06:16:38.351Z,28.5
2017-02-26T06:17:39.786Z,28.5
2017-02-26T06:18:38.479Z,28.5
2017-02-26T06:19:38.425Z,28.5
2017-02-26T06:20:38.575Z,28.5
2017-02-26T06:21:38.674Z,28.5
2017-02-26T06:22:38.593Z,28.5
2017-02-26T06:23:38.887Z,28.5
2017-02-26T06:24:38.769Z,28.5
2017-02-26T06:25:39.925Z,28.5
2017-02-26T06:26:39.947Z,28.5
2017-02-26T06:27:40.002Z,28.5
2017-02-26T06:28:40.199Z,28.5
2017-02-26T06:29:40.355Z,28.5
2017-02-26T06:30:40.191Z,28.5
2017-02-26T06:31:39.191Z,28.5
2017-02-26T06:32:39.136Z,28.5
2017-02-26T06:33:40.405Z,28.5
2017-02-26T06:34:40.419Z,28.5
2017-02-26T06:35:40.629Z,28.5
2017-02-26T06:36:39.428Z,28.5
2017-02-26T06:37:39.405Z,28.5
2017-02-26T06:38:39.461Z,28.5
2017-02-26T06:39:39.521Z,28.5
2017-02-26T06:40:39.651Z,28.5
2017-02-26T06:41:40.917Z,28.5
2017-02-26T06:42:40.673Z,28.5
2017-02-26T06:43:40.774Z,28.5
2017-02-26T06:44:40.764Z,28.5
2017-02-26T06:45:40.920Z,28.5
2017-02-26T06:46:40.845Z,28.5
2017-02-26T06:47:41.141Z,28.5
2017-02-26T06:48:39.919Z,28.5
2017-02-26T06:49:40.027Z,28.5
2017-02-26T06:50:39.949Z,28.5
2017-02-26T06:51:40.138Z,28.5
2017-02-26T06:52:41.209Z,28.5
2017-02-26T06:53:41.462Z,28.5
2017-02-26T06:54:40.231Z,28.5
2017-02-26T06:55:40.213Z,28.5
2017-02-26T06:56:40.317Z,28.5
2017-02-26T06:57:40.256Z,28.5
2017-02-26T06:58:40.323Z,28.5
2017-02-26T06:59:40.507Z,28.5
2017-02-26T07:00:41.488Z,28.5
2017-02-26T07:01:40.456Z,28.5
2017-02-26T07:02:41.574Z,28.5
2017-02-26T07:03:41.667Z,28.5
2017-02-26T07:04:40.564Z,28.5
2017-02-26T07:05:41.916Z,28.5
2017-02-26T07:06:41.712Z,28.5
2017-02-26T07:07:41.794Z,28.5
2017-02-26T07:08:40.645Z,28.5
2017-02-26T07:09:41.874Z,28.5
2017-02-26T07:10:40.783Z,28.5
2017-02-26T07:11:42.068Z,28.4
2017-02-26T07:12:40.879Z,28.4
2017-02-26T07:13:42.024Z,28.4
2017-02-26T07:14:42.016Z,28.4
2017-02-26T07:15:42.079Z,28.4
2017-02-26T07:16:42.087Z,28.4
2017-02-26T07:17:42.464Z,28.4
2017-02-26T07:18:41.149Z,28.4
2017-02-26T07:19:42.385Z,28.4
2017-02-26T07:20:42.346Z,28.4
2017-02-26T07:21:42.417Z,28.4
2017-02-26T07:22:41.510Z,28.4
2017-02-26T07:23:42.744Z,28.4
2017-02-26T07:24:41.516Z,28.4
2017-02-26T07:25:41.506Z,28.3
2017-02-26T07:26:41.464Z,28.3
2017-02-26T07:27:41.549Z,28.3
2017-02-26T07:28:41.581Z,28.3
2017-02-26T07:29:43.000Z,28.3
2017-02-26T07:30:42.778Z,28.3
2017-02-26T07:31:42.863Z,28.3
2017-02-26T07:32:42.910Z,28.3
2017-02-26T07:33:41.960Z,28.3
2017-02-26T07:34:43.045Z,28.3
2017-02-26T07:35:43.271Z,28.3
2017-02-26T07:36:42.044Z,28.3
2017-02-26T07:37:42.073Z,28.3
2017-02-26T07:38:42.049Z,28.3
2017-02-26T07:39:42.052Z,28.3
2017-02-26T07:40:42.196Z,28.3
2017-02-26T07:41:43.356Z,28.3
2017-02-26T07:42:42.224Z,28.3
2017-02-26T07:43:42.237Z,28.3
2017-02-26T07:44:42.265Z,28.3
2017-02-26T07:45:42.301Z,28.3
2017-02-26T07:46:42.324Z,28.3
2017-02-26T07:47:42.433Z,28.3
2017-02-26T07:48:42.464Z,28.3
2017-02-26T07:49:43.428Z,28.3
2017-02-26T07:50:43.488Z,28.3
2017-02-26T07:51:43.421Z,28.3
2017-02-26T07:52:43.544Z,28.3
2017-02-26T07:53:43.791Z,28.3
2017-02-26T07:54:42.418Z,28.3
2017-02-26T07:55:42.553Z,28.3
2017-02-26T07:56:43.580Z,28.3
2017-02-26T07:57:43.583Z,28.3
2017-02-26T07:58:42.637Z,28.3
2017-02-26T07:59:42.793Z,28.3
2017-02-26T08:00:43.764Z,28.3
2017-02-26T08:01:43.699Z,28.3
2017-02-26T08:02:42.681Z,28.3
2017-02-26T08:03:42.720Z,28.3
2017-02-26T08:04:43.837Z,28.3
2017-02-26T08:05:44.221Z,28.3
2017-02-26T08:06:43.007Z,28.3
2017-02-26T08:07:42.927Z,28.3
2017-02-26T08:08:44.017Z,28.3
2017-02-26T08:09:44.051Z,28.3
2017-02-26T08:10:43.061Z,28.3
2017-02-26T08:11:44.405Z,28.3
2017-02-26T08:12:43.263Z,28.3
2017-02-26T08:13:43.276Z,28.3
2017-02-26T08:14:43.307Z,28.3
2017-02-26T08:15:43.418Z,28.3
2017-02-26T08:16:44.438Z,28.3
2017-02-26T08:17:43.795Z,28.3
2017-02-26T08:18:44.499Z,28.3
2017-02-26T08:19:43.523Z,28.3
2017-02-26T08:20:44.794Z,28.3
2017-02-26T08:21:43.745Z,28.3
2017-02-26T08:22:44.901Z,28.3
2017-02-26T08:23:44.964Z,28.3
2017-02-26T08:24:43.914Z,28.3
2017-02-26T08:25:44.012Z,28.3
2017-02-26T08:26:44.019Z,28.3
2017-02-26T08:27:44.029Z,28.3
2017-02-26T08:28:45.207Z,28.3
2017-02-26T08:29:44.088Z,28.3
2017-02-26T08:30:45.190Z,28.3
2017-02-26T08:31:45.305Z,28.3
2017-02-26T08:32:45.281Z,28.3
2017-02-26T08:33:45.326Z,28.3
2017-02-26T08:34:45.442Z,28.3
2017-02-26T08:35:44.366Z,28.3
2017-02-26T08:36:44.475Z,28.3
2017-02-26T08:37:44.514Z,28.3
2017-02-26T08:38:45.588Z,28.3
2017-02-26T08:39:45.600Z,28.3
2017-02-26T08:40:45.753Z,28.3
2017-02-26T08:41:44.789Z,28.3
2017-02-26T08:42:45.732Z,28.3
2017-02-26T08:43:45.796Z,28.3
2017-02-26T08:44:45.889Z,28.3
2017-02-26T08:45:45.863Z,28.3
2017-02-26T08:46:44.788Z,28.3
2017-02-26T08:47:45.110Z,28.3
2017-02-26T08:48:45.911Z,28.2
2017-02-26T08:49:44.997Z,28.2
2017-02-26T08:50:44.981Z,28.2
2017-02-26T08:51:45.117Z,28.2
2017-02-26T08:52:45.120Z,28.2
2017-02-26T08:53:45.559Z,28.2
2017-02-26T08:54:46.289Z,28.2
2017-02-26T08:55:45.373Z,28.2
2017-02-26T08:56:46.527Z,28.2
2017-02-26T08:57:45.498Z,28.2
2017-02-26T08:58:46.609Z,28.2
2017-02-26T08:59:45.749Z,28.2
2017-02-26T09:00:46.726Z,28.2
2017-02-26T09:01:45.616Z,28.1
2017-02-26T09:02:46.666Z,28.1
2017-02-26T09:03:46.735Z,28.1
2017-02-26T09:04:46.817Z,28
2017-02-26T09:05:46.001Z,28
2017-02-26T09:06:45.919Z,27.9
2017-02-26T09:07:45.985Z,27.8
2017-02-26T09:08:47.065Z,27.8
2017-02-26T09:09:46.163Z,27.8
2017-02-26T09:10:47.307Z,27.8
2017-02-26T09:11:46.301Z,27.8
2017-02-26T09:12:46.251Z,27.8
2017-02-26T09:13:46.284Z,27.8
2017-02-26T09:14:47.390Z,27.8
2017-02-26T09:15:46.409Z,27.8
2017-02-26T09:16:47.444Z,27.8
2017-02-26T09:17:46.697Z,27.8
2017-02-26T09:18:46.589Z,27.8
2017-02-26T09:19:47.664Z,27.8
2017-02-26T09:20:47.669Z,27.8
2017-02-26T09:21:46.651Z,27.8
2017-02-26T09:22:47.737Z,27.8
2017-02-26T09:23:47.961Z,27.7
2017-02-26T09:24:46.797Z,27.7
2017-02-26T09:25:47.922Z,27.7
2017-02-26T09:26:47.936Z,27.6
2017-02-26T09:27:46.908Z,27.6
2017-02-26T09:28:46.905Z,27.6
2017-02-26T09:29:48.131Z,27.5
2017-02-26T09:30:47.979Z,27.5
2017-02-26T09:31:48.128Z,27.4
2017-02-26T09:32:48.139Z,27.4
2017-02-26T09:33:47.116Z,27.4
2017-02-26T09:34:48.270Z,27.3
2017-02-26T09:35:48.508Z,27.3
2017-02-26T09:36:48.344Z,27.2
2017-02-26T09:37:48.368Z,27.2
2017-02-26T09:38:48.384Z,27.2
2017-02-26T09:39:48.311Z,27.3
2017-02-26T09:40:48.501Z,27.3
2017-02-26T09:41:48.625Z,27.3
2017-02-26T09:42:47.385Z,27.3
2017-02-26T09:43:48.546Z,27.3
2017-02-26T09:44:47.515Z,27.4
2017-02-26T09:45:47.554Z,27.4
2017-02-26T09:46:48.797Z,27.4
2017-02-26T09:47:48.949Z,27.4
2017-02-26T09:48:47.751Z,27.4
2017-02-26T09:49:48.844Z,27.4
2017-02-26T09:50:47.811Z,27.4
2017-02-26T09:51:49.002Z,27.4
2017-02-26T09:52:47.954Z,27.4
2017-02-26T09:53:48.352Z,27.4
2017-02-26T09:54:48.946Z,27.4
2017-02-26T09:55:48.022Z,27.4
2017-02-26T09:56:49.112Z,27.4
2017-02-26T09:57:49.087Z,27.4
2017-02-26T09:58:48.053Z,27.4
2017-02-26T09:59:49.432Z,27.4
2017-02-26T10:00:48.155Z,27.4
2017-02-26T10:01:49.282Z,27.4
2017-02-26T10:02:49.426Z,27.4
2017-02-26T10:03:49.369Z,27.4
2017-02-26T10:04:49.386Z,27.4
2017-02-26T10:05:48.581Z,27.4
2017-02-26T10:06:49.573Z,27.4
2017-02-26T10:07:49.658Z,27.4
2017-02-26T10:08:49.648Z,27.5
2017-02-26T10:09:49.684Z,27.4
2017-02-26T10:10:48.683Z,27.5
2017-02-26T10:11:49.830Z,27.5
2017-02-26T10:12:48.716Z,27.5
2017-02-26T10:13:48.758Z,27.5
2017-02-26T10:14:49.923Z,27.5
2017-02-26T10:15:50.013Z,27.5
2017-02-26T10:16:49.054Z,27.5
2017-02-26T10:17:49.262Z,27.5
2017-02-26T10:18:50.115Z,27.5
2017-02-26T10:19:50.170Z,27.5
2017-02-26T10:20:49.123Z,27.5
2017-02-26T10:21:50.307Z,27.5
2017-02-26T10:22:50.308Z,27.5
2017-02-26T10:23:50.447Z,27.5
2017-02-26T10:24:50.387Z,27.5
2017-02-26T10:25:49.303Z,27.5
2017-02-26T10:26:49.326Z,27.5
2017-02-26T10:27:49.508Z,27.5
2017-02-26T10:28:50.618Z,27.5
2017-02-26T10:29:50.824Z,27.5
2017-02-26T10:30:49.506Z,27.5
2017-02-26T10:31:49.526Z,27.5
2017-02-26T10:32:50.700Z,27.5
2017-02-26T10:33:50.763Z,27.5
2017-02-26T10:34:50.773Z,27.5
2017-02-26T10:35:51.085Z,27.5
2017-02-26T10:36:49.814Z,27.5
2017-02-26T10:37:49.923Z,27.5
2017-02-26T10:38:50.934Z,27.5
2017-02-26T10:39:49.936Z,27.5
2017-02-26T10:40:51.055Z,27.4
2017-02-26T10:41:51.352Z,27.4
2017-02-26T10:42:51.099Z,27.4
2017-02-26T10:43:51.140Z,27.4
2017-02-26T10:44:51.182Z,27.4
2017-02-26T10:45:50.173Z,27.4
2017-02-26T10:46:51.252Z,27.4
2017-02-26T10:47:51.648Z,27.4
2017-02-26T10:48:50.295Z,27.4
2017-02-26T10:49:51.366Z,27.4
2017-02-26T10:50:51.456Z,27.4
2017-02-26T10:51:51.447Z,27.4
2017-02-26T10:52:51.623Z,27.4
2017-02-26T10:53:50.624Z,27.4
2017-02-26T10:54:51.634Z,27.4
2017-02-26T10:55:50.558Z,27.4
2017-02-26T10:56:50.631Z,27.4
2017-02-26T10:57:51.715Z,27.4
2017-02-26T10:58:50.678Z,27.5
2017-02-26T10:59:51.947Z,27.5
2017-02-26T11:00:50.804Z,27.5
2017-02-26T11:01:51.023Z,27.4
2017-02-26T11:02:52.291Z,27.4
2017-02-26T11:03:51.197Z,27.4
2017-02-26T11:04:51.206Z,27.5
2017-02-26T11:05:51.855Z,27.5
2017-02-26T11:06:51.324Z,27.5
2017-02-26T11:07:51.382Z,27.5
2017-02-26T11:08:51.313Z,27.5
2017-02-26T11:09:51.385Z,27.5
2017-02-26T11:10:51.535Z,27.5
2017-02-26T11:11:53.183Z,27.5
2017-02-26T11:12:51.583Z,27.5
2017-02-26T11:13:53.869Z,27.5
2017-02-26T11:14:51.568Z,27.5
2017-02-26T11:15:51.747Z,27.5
2017-02-26T11:16:52.890Z,27.5
2017-02-26T11:17:52.903Z,27.5
2017-02-26T11:18:52.936Z,27.5
2017-02-26T11:19:51.935Z,27.5
2017-02-26T11:20:53.167Z,27.5
2017-02-26T11:21:52.216Z,27.5
2017-02-26T11:22:52.144Z,27.5
2017-02-26T11:23:53.400Z,27.5
2017-02-26T11:24:52.410Z,27.5
2017-02-26T11:25:53.990Z,27.5
2017-02-26T11:26:52.482Z,27.5
2017-02-26T11:27:53.434Z,27.5
2017-02-26T11:28:52.524Z,27.5
2017-02-26T11:29:52.420Z,27.5
2017-02-26T11:30:53.529Z,27.5
2017-02-26T11:31:52.542Z,27.5
2017-02-26T11:32:53.833Z,27.5
2017-02-26T11:33:52.794Z,27.5
2017-02-26T11:34:53.817Z,27.5
2017-02-26T11:35:52.782Z,27.5
2017-02-26T11:36:52.816Z,27.5
2017-02-26T11:37:54.071Z,27.5
2017-02-26T11:38:54.085Z,27.5
2017-02-26T11:39:54.010Z,27.5
2017-02-26T11:40:54.089Z,27.6
2017-02-26T11:41:54.109Z,27.6
2017-02-26T11:42:54.247Z,27.6
2017-02-26T11:43:54.178Z,27.6
2017-02-26T11:44:54.290Z,27.6
2017-02-26T11:45:54.410Z,27.6
2017-02-26T11:46:54.360Z,27.5
2017-02-26T11:47:54.516Z,27.5
2017-02-26T11:48:53.348Z,27.5
2017-02-26T11:49:54.524Z,27.5
2017-02-26T11:50:54.419Z,27.5
2017-02-26T11:51:53.517Z,27.5
2017-02-26T11:52:54.574Z,27.5
2017-02-26T11:53:53.627Z,27.5
2017-02-26T11:54:53.607Z,27.5
2017-02-26T11:55:53.693Z,27.5
2017-02-26T11:56:54.749Z,27.5
2017-02-26T11:57:53.764Z,27.5
2017-02-26T11:58:53.910Z,27.5
2017-02-26T11:59:53.991Z,27.5
2017-02-26T12:00:55.051Z,27.5
2017-02-26T12:01:54.163Z,27.5
2017-02-26T12:02:55.267Z,27.5
2017-02-26T12:03:54.203Z,27.4
2017-02-26T12:04:54.261Z,27.4
2017-02-26T12:05:55.406Z,27.4
2017-02-26T12:06:54.336Z,27.4
2017-02-26T12:07:54.351Z,27.4
2017-02-26T12:08:54.458Z,27.4
2017-02-26T12:09:54.468Z,27.4
2017-02-26T12:10:54.474Z,27.4
2017-02-26T12:11:54.472Z,27.5
2017-02-26T12:12:55.749Z,27.5
2017-02-26T12:13:54.750Z,27.4
2017-02-26T12:14:54.718Z,27.5
2017-02-26T12:15:55.855Z,27.5
2017-02-26T12:16:54.915Z,27.4
2017-02-26T12:17:54.984Z,27.4
2017-02-26T12:18:54.927Z,27.4
2017-02-26T12:19:56.150Z,27.4
2017-02-26T12:20:55.158Z,27.4
2017-02-26T12:21:55.071Z,27.4
2017-02-26T12:22:56.314Z,27.4
2017-02-26T12:23:56.375Z,27.4
2017-02-26T12:24:56.429Z,27.4
2017-02-26T12:25:55.460Z,27.4
2017-02-26T12:26:55.590Z,27.4
2017-02-26T12:27:55.580Z,27.4
2017-02-26T12:28:55.659Z,27.4
2017-02-26T12:29:55.741Z,27.4
2017-02-26T12:30:56.975Z,27.4
2017-02-26T12:31:55.938Z,27.4
2017-02-26T12:32:56.125Z,27.4
2017-02-26T12:33:56.349Z,27.4
2017-02-26T12:34:56.266Z,27.4
2017-02-26T12:35:56.255Z,27.4
2017-02-26T12:36:56.465Z,27.4
2017-02-26T12:37:57.420Z,27.4
2017-02-26T12:38:56.499Z,27.4
2017-02-26T12:39:56.572Z,27.4
2017-02-26T12:40:57.654Z,27.4
2017-02-26T12:41:56.707Z,27.3
2017-02-26T12:42:56.657Z,27.4
2017-02-26T12:43:57.836Z,27.3
2017-02-26T12:44:56.823Z,27.3
2017-02-26T12:45:57.004Z,27.3
2017-02-26T12:46:58.081Z,27.3
2017-02-26T12:47:57.067Z,27.2
2017-02-26T12:48:57.053Z,27.2
2017-02-26T12:49:57.290Z,27.2
2017-02-26T12:50:58.333Z,27.2
2017-02-26T12:51:57.320Z,27.2
2017-02-26T12:52:58.471Z,27.2
2017-02-26T12:53:57.436Z,27.2
2017-02-26T12:54:57.438Z,27.2
2017-02-26T12:55:57.459Z,27.2
2017-02-26T12:56:57.548Z,27.3
2017-02-26T12:57:57.578Z,27.3
2017-02-26T12:58:57.539Z,27.3
2017-02-26T12:59:58.656Z,27.3
2017-02-26T13:00:57.742Z,27.3
2017-02-26T13:01:58.799Z,27.3
2017-02-26T13:02:58.940Z,27.3
2017-02-26T13:03:57.916Z,27.3
2017-02-26T13:04:58.984Z,27.3
2017-02-26T13:05:58.029Z,27.3
2017-02-26T13:06:58.038Z,27.3
2017-02-26T13:07:58.088Z,27.3
2017-02-26T13:08:59.160Z,27.3
2017-02-26T13:09:59.263Z,27.3
2017-02-26T13:10:58.227Z,27.4
2017-02-26T13:11:59.292Z,27.4
2017-02-26T13:12:58.198Z,27.4
2017-02-26T13:13:59.381Z,27.4
2017-02-26T13:14:58.303Z,27.4
2017-02-26T13:15:59.384Z,27.4
2017-02-26T13:16:59.399Z,27.4
2017-02-26T13:17:59.444Z,27.3
2017-02-26T13:18:59.511Z,27.4